sensor_id;sensor_type;location;lat;lon;timestamp;pressure;altitude;pressure_sealevel;temperature;humidity
11621;BME280;5866;49.094;11.900;2023-03-22T00:01:24;96012.97;;;13.48;89.51
11621;BME280;5866;49.094;11.900;2023-03-22T00:03:53;96011.06;;;13.42;89.57
11621;BME280;5866;49.094;11.900;2023-03-22T00:06:21;96012.13;;;13.48;89.48
11621;BME280;5866;49.094;11.900;2023-03-22T00:08:50;96009.56;;;13.54;89.25
11621;BME280;5866;49.094;11.900;2023-03-22T00:11:19;96007.53;;;13.57;89.09
11621;BME280;5866;49.094;11.900;2023-03-22T00:13:49;96011.69;;;13.59;88.98
11621;BME280;5866;49.094;11.900;2023-03-22T00:16:18;96004.88;;;13.42;90.11
11621;BME280;5866;49.094;11.900;2023-03-22T00:18:46;96003.31;;;13.47;89.09
11621;BME280;5866;49.094;11.900;2023-03-22T00:21:15;96007.38;;;13.43;90.14
11621;BME280;5866;49.094;11.900;2023-03-22T00:23:43;96003.94;;;13.49;89.63
11621;BME280;5866;49.094;11.900;2023-03-22T00:26:11;96000.53;;;13.55;89.19
11621;BME280;5866;49.094;11.900;2023-03-22T00:28:39;95999.34;;;13.58;88.90
11621;BME280;5866;49.094;11.900;2023-03-22T00:31:10;96018.22;;;13.27;92.87
11621;BME280;5866;49.094;11.900;2023-03-22T00:33:37;96014.75;;;12.90;96.93
11621;BME280;5866;49.094;11.900;2023-03-22T00:36:07;96014.38;;;13.15;95.17
11621;BME280;5866;49.094;11.900;2023-03-22T00:38:36;96005.16;;;13.32;92.98
11621;BME280;5866;49.094;11.900;2023-03-22T00:41:11;96007.75;;;13.40;91.89
11621;BME280;5866;49.094;11.900;2023-03-22T00:43:39;96005.34;;;13.31;91.92
11621;BME280;5866;49.094;11.900;2023-03-22T00:46:08;96001.75;;;13.38;91.79
11621;BME280;5866;49.094;11.900;2023-03-22T00:48:37;96000.84;;;13.46;91.16
11621;BME280;5866;49.094;11.900;2023-03-22T00:51:05;95999.09;;;13.53;90.14
11621;BME280;5866;49.094;11.900;2023-03-22T00:53:33;95996.25;;;13.54;89.57
11621;BME280;5866;49.094;11.900;2023-03-22T00:56:02;95992.56;;;13.55;89.41
11621;BME280;5866;49.094;11.900;2023-03-22T00:58:30;95986.97;;;13.50;89.64
11621;BME280;5866;49.094;11.900;2023-03-22T01:00:57;95989.25;;;13.39;90.71
11621;BME280;5866;49.094;11.900;2023-03-22T01:03:26;95989.34;;;13.45;90.55
11621;BME280;5866;49.094;11.900;2023-03-22T01:05:54;95979.53;;;13.46;90.29
11621;BME280;5866;49.094;11.900;2023-03-22T01:08:21;95980.81;;;13.50;90.01
11621;BME280;5866;49.094;11.900;2023-03-22T01:10:49;95979.78;;;13.51;89.81
11621;BME280;5866;49.094;11.900;2023-03-22T01:13:17;95974.94;;;13.40;89.96
11621;BME280;5866;49.094;11.900;2023-03-22T01:15:48;95973.13;;;13.40;90.12
11621;BME280;5866;49.094;11.900;2023-03-22T01:18:17;95974.09;;;13.39;89.27
11621;BME280;5866;49.094;11.900;2023-03-22T01:20:45;95973.47;;;13.37;89.58
11621;BME280;5866;49.094;11.900;2023-03-22T01:23:13;95962.09;;;13.29;89.66
11621;BME280;5866;49.094;11.900;2023-03-22T01:25:41;95964.09;;;13.27;90.47
11621;BME280;5866;49.094;11.900;2023-03-22T01:28:08;95956.31;;;13.25;90.46
11621;BME280;5866;49.094;11.900;2023-03-22T01:30:37;95961.34;;;13.20;90.82
11621;BME280;5866;49.094;11.900;2023-03-22T01:33:06;95951.16;;;13.09;90.69
11621;BME280;5866;49.094;11.900;2023-03-22T01:35:34;95965.63;;;12.63;94.28
11621;BME280;5866;49.094;11.900;2023-03-22T01:38:03;95968.63;;;12.60;94.50
11621;BME280;5866;49.094;11.900;2023-03-22T01:40:32;95967.25;;;12.64;94.22
11621;BME280;5866;49.094;11.900;2023-03-22T01:43:00;95964.44;;;12.43;94.73
11621;BME280;5866;49.094;11.900;2023-03-22T01:45:37;95974.22;;;12.28;99.38
11621;BME280;5866;49.094;11.900;2023-03-22T01:48:18;95972.84;;;12.32;100.00
11621;BME280;5866;49.094;11.900;2023-03-22T01:50:52;95973.22;;;12.29;100.00
11621;BME280;5866;49.094;11.900;2023-03-22T01:53:24;95967.53;;;12.32;100.00
11621;BME280;5866;49.094;11.900;2023-03-22T01:55:54;95960.84;;;12.36;100.00
11621;BME280;5866;49.094;11.900;2023-03-22T01:58:24;95955.31;;;12.23;100.00
11621;BME280;5866;49.094;11.900;2023-03-22T02:00:52;95951.25;;;12.12;100.00
11621;BME280;5866;49.094;11.900;2023-03-22T02:03:25;95945.56;;;11.92;100.00
11621;BME280;5866;49.094;11.900;2023-03-22T02:05:55;95952.84;;;11.98;100.00
11621;BME280;5866;49.094;11.900;2023-03-22T02:08:24;95945.44;;;12.09;100.00
11621;BME280;5866;49.094;11.900;2023-03-22T02:10:52;95945.63;;;12.07;99.91
11621;BME280;5866;49.094;11.900;2023-03-22T02:13:37;95947.25;;;11.93;100.00
11621;BME280;5866;49.094;11.900;2023-03-22T02:16:25;95941.56;;;11.96;100.00
11621;BME280;5866;49.094;11.900;2023-03-22T02:19:09;95940.25;;;11.92;100.00
11621;BME280;5866;49.094;11.900;2023-03-22T02:22:02;95949.47;;;12.05;100.00
11621;BME280;5866;49.094;11.900;2023-03-22T02:25:09;95944.03;;;12.21;100.00
11621;BME280;5866;49.094;11.900;2023-03-22T02:28:04;95940.03;;;12.25;100.00
11621;BME280;5866;49.094;11.900;2023-03-22T02:31:09;95936.25;;;12.34;100.00
11621;BME280;5866;49.094;11.900;2023-03-22T02:34:23;95938.84;;;12.27;100.00
11621;BME280;5866;49.094;11.900;2023-03-22T02:37:22;95928.28;;;12.34;100.00
11621;BME280;5866;49.094;11.900;2023-03-22T02:40:02;95933.34;;;12.29;99.84
11621;BME280;5866;49.094;11.900;2023-03-22T02:42:41;95932.72;;;12.04;100.00
11621;BME280;5866;49.094;11.900;2023-03-22T02:45:14;95938.97;;;11.88;100.00
11621;BME280;5866;49.094;11.900;2023-03-22T02:47:51;95930.00;;;11.89;100.00
11621;BME280;5866;49.094;11.900;2023-03-22T02:50:24;95929.50;;;12.09;100.00
11621;BME280;5866;49.094;11.900;2023-03-22T02:52:56;95926.78;;;12.17;100.00
11621;BME280;5866;49.094;11.900;2023-03-22T02:55:30;95928.09;;;12.21;100.00
11621;BME280;5866;49.094;11.900;2023-03-22T02:58:02;95918.25;;;12.21;100.00
11621;BME280;5866;49.094;11.900;2023-03-22T03:00:32;95926.03;;;12.08;100.00
11621;BME280;5866;49.094;11.900;2023-03-22T03:03:06;95935.19;;;12.06;100.00
11621;BME280;5866;49.094;11.900;2023-03-22T03:05:39;95930.41;;;12.01;100.00
11621;BME280;5866;49.094;11.900;2023-03-22T03:08:09;95927.75;;;12.01;100.00
11621;BME280;5866;49.094;11.900;2023-03-22T03:10:39;95927.41;;;12.04;100.00
11621;BME280;5866;49.094;11.900;2023-03-22T03:13:10;95931.41;;;12.00;100.00
11621;BME280;5866;49.094;11.900;2023-03-22T03:15:40;95931.63;;;11.90;100.00
11621;BME280;5866;49.094;11.900;2023-03-22T03:18:21;95928.69;;;11.85;100.00
11621;BME280;5866;49.094;11.900;2023-03-22T03:20:57;95917.84;;;11.64;100.00
11621;BME280;5866;49.094;11.900;2023-03-22T03:23:33;95921.88;;;11.52;100.00
11621;BME280;5866;49.094;11.900;2023-03-22T03:26:07;95922.44;;;11.48;100.00
11621;BME280;5866;49.094;11.900;2023-03-22T03:28:46;95923.66;;;11.37;100.00
11621;BME280;5866;49.094;11.900;2023-03-22T03:31:26;95922.88;;;11.29;100.00
11621;BME280;5866;49.094;11.900;2023-03-22T03:34:00;95921.00;;;10.98;100.00
11621;BME280;5866;49.094;11.900;2023-03-22T03:36:31;95921.19;;;10.97;100.00
11621;BME280;5866;49.094;11.900;2023-03-22T03:39:05;95920.59;;;10.71;100.00
11621;BME280;5866;49.094;11.900;2023-03-22T03:41:37;95923.47;;;10.53;100.00
11621;BME280;5866;49.094;11.900;2023-03-22T03:44:05;95922.28;;;10.56;100.00
11621;BME280;5866;49.094;11.900;2023-03-22T03:46:33;95926.59;;;10.57;100.00
11621;BME280;5866;49.094;11.900;2023-03-22T03:49:02;95921.66;;;10.46;100.00
11621;BME280;5866;49.094;11.900;2023-03-22T03:51:32;95929.28;;;10.41;100.00
11621;BME280;5866;49.094;11.900;2023-03-22T03:54:00;95924.81;;;10.33;100.00
11621;BME280;5866;49.094;11.900;2023-03-22T03:56:27;95930.78;;;10.27;100.00
11621;BME280;5866;49.094;11.900;2023-03-22T03:58:56;95924.34;;;10.21;100.00
11621;BME280;5866;49.094;11.900;2023-03-22T04:01:23;95923.34;;;10.14;100.00
11621;BME280;5866;49.094;11.900;2023-03-22T04:03:51;95924.97;;;9.99;100.00
11621;BME280;5866;49.094;11.900;2023-03-22T04:06:20;95925.63;;;9.93;100.00
11621;BME280;5866;49.094;11.900;2023-03-22T04:08:48;95929.13;;;9.94;100.00
11621;BME280;5866;49.094;11.900;2023-03-22T04:11:18;95935.91;;;9.88;100.00
11621;BME280;5866;49.094;11.900;2023-03-22T04:13:46;95939.88;;;9.84;100.00
11621;BME280;5866;49.094;11.900;2023-03-22T04:16:15;95946.31;;;9.74;100.00
11621;BME280;5866;49.094;11.900;2023-03-22T04:18:42;95941.84;;;9.74;100.00
11621;BME280;5866;49.094;11.900;2023-03-22T04:21:10;95942.66;;;9.67;100.00
11621;BME280;5866;49.094;11.900;2023-03-22T04:23:37;95939.34;;;9.65;100.00
11621;BME280;5866;49.094;11.900;2023-03-22T04:26:06;95938.81;;;9.53;100.00
11621;BME280;5866;49.094;11.900;2023-03-22T04:28:33;95935.19;;;9.46;100.00
11621;BME280;5866;49.094;11.900;2023-03-22T04:31:01;95932.03;;;9.42;100.00
11621;BME280;5866;49.094;11.900;2023-03-22T04:33:30;95928.56;;;9.42;100.00
11621;BME280;5866;49.094;11.900;2023-03-22T04:36:05;95928.06;;;9.46;100.00
11621;BME280;5866;49.094;11.900;2023-03-22T04:38:35;95927.56;;;9.43;100.00
11621;BME280;5866;49.094;11.900;2023-03-22T04:41:05;95929.22;;;9.44;100.00
11621;BME280;5866;49.094;11.900;2023-03-22T04:43:33;95921.94;;;9.38;100.00
11621;BME280;5866;49.094;11.900;2023-03-22T04:46:00;95930.19;;;9.35;100.00
11621;BME280;5866;49.094;11.900;2023-03-22T04:48:28;95924.38;;;9.23;100.00
11621;BME280;5866;49.094;11.900;2023-03-22T04:50:57;95927.47;;;9.11;100.00
11621;BME280;5866;49.094;11.900;2023-03-22T04:53:29;95918.81;;;9.01;100.00
11621;BME280;5866;49.094;11.900;2023-03-22T04:55:56;95922.16;;;9.03;100.00
11621;BME280;5866;49.094;11.900;2023-03-22T04:58:25;95927.47;;;9.03;100.00
11621;BME280;5866;49.094;11.900;2023-03-22T05:00:52;95927.28;;;9.04;100.00
11621;BME280;5866;49.094;11.900;2023-03-22T05:03:21;95920.66;;;9.00;100.00
11621;BME280;5866;49.094;11.900;2023-03-22T05:05:49;95911.22;;;8.98;100.00
11621;BME280;5866;49.094;11.900;2023-03-22T05:08:19;95918.78;;;8.93;100.00
11621;BME280;5866;49.094;11.900;2023-03-22T05:10:47;95920.28;;;8.87;100.00
11621;BME280;5866;49.094;11.900;2023-03-22T05:13:14;95913.94;;;8.80;100.00
11621;BME280;5866;49.094;11.900;2023-03-22T05:15:42;95919.09;;;8.82;100.00
11621;BME280;5866;49.094;11.900;2023-03-22T05:18:10;95917.78;;;8.86;100.00
11621;BME280;5866;49.094;11.900;2023-03-22T05:20:39;95917.63;;;8.87;100.00
11621;BME280;5866;49.094;11.900;2023-03-22T05:23:07;95925.09;;;8.92;100.00
11621;BME280;5866;49.094;11.900;2023-03-22T05:25:36;95921.81;;;8.98;100.00
11621;BME280;5866;49.094;11.900;2023-03-22T05:28:04;95934.75;;;9.09;100.00
11621;BME280;5866;49.094;11.900;2023-03-22T05:30:32;95922.00;;;9.04;100.00
11621;BME280;5866;49.094;11.900;2023-03-22T05:33:01;95926.00;;;9.16;100.00
11621;BME280;5866;49.094;11.900;2023-03-22T05:35:29;95933.84;;;9.34;100.00
11621;BME280;5866;49.094;11.900;2023-03-22T05:37:57;95936.97;;;9.29;100.00
11621;BME280;5866;49.094;11.900;2023-03-22T05:40:24;95940.28;;;9.31;100.00
11621;BME280;5866;49.094;11.900;2023-03-22T05:42:53;95941.81;;;9.50;100.00
11621;BME280;5866;49.094;11.900;2023-03-22T05:45:22;95938.09;;;9.27;100.00
11621;BME280;5866;49.094;11.900;2023-03-22T05:47:50;95936.72;;;9.73;100.00
11621;BME280;5866;49.094;11.900;2023-03-22T05:50:20;95929.63;;;10.05;100.00
11621;BME280;5866;49.094;11.900;2023-03-22T05:52:49;95931.31;;;10.30;100.00
11621;BME280;5866;49.094;11.900;2023-03-22T05:55:17;95932.59;;;10.43;100.00
11621;BME280;5866;49.094;11.900;2023-03-22T05:57:45;95926.56;;;10.65;100.00
11621;BME280;5866;49.094;11.900;2023-03-22T06:00:18;95932.56;;;10.59;100.00
11621;BME280;5866;49.094;11.900;2023-03-22T06:02:48;95927.88;;;10.77;100.00
11621;BME280;5866;49.094;11.900;2023-03-22T06:05:17;95931.81;;;10.81;100.00
11621;BME280;5866;49.094;11.900;2023-03-22T06:07:46;95930.03;;;10.73;100.00
11621;BME280;5866;49.094;11.900;2023-03-22T06:10:14;95934.84;;;10.78;100.00
11621;BME280;5866;49.094;11.900;2023-03-22T06:12:41;95928.50;;;10.95;100.00
11621;BME280;5866;49.094;11.900;2023-03-22T06:15:10;95931.88;;;11.19;100.00
11621;BME280;5866;49.094;11.900;2023-03-22T06:17:39;95926.41;;;11.13;100.00
11621;BME280;5866;49.094;11.900;2023-03-22T06:20:10;95935.25;;;11.05;100.00
11621;BME280;5866;49.094;11.900;2023-03-22T06:22:39;95932.41;;;11.07;100.00
11621;BME280;5866;49.094;11.900;2023-03-22T06:25:08;95932.00;;;11.26;100.00
11621;BME280;5866;49.094;11.900;2023-03-22T06:27:36;95926.13;;;11.39;100.00
11621;BME280;5866;49.094;11.900;2023-03-22T06:30:05;95930.97;;;11.35;100.00
11621;BME280;5866;49.094;11.900;2023-03-22T06:32:33;95928.50;;;11.56;100.00
11621;BME280;5866;49.094;11.900;2023-03-22T06:35:02;95928.59;;;11.79;100.00
11621;BME280;5866;49.094;11.900;2023-03-22T06:37:29;95933.50;;;12.05;100.00
11621;BME280;5866;49.094;11.900;2023-03-22T06:39:57;95944.69;;;12.23;100.00
11621;BME280;5866;49.094;11.900;2023-03-22T06:42:24;95938.78;;;12.50;100.00
11621;BME280;5866;49.094;11.900;2023-03-22T06:44:52;95935.31;;;12.64;99.90
11621;BME280;5866;49.094;11.900;2023-03-22T06:47:19;95940.13;;;12.83;100.00
11621;BME280;5866;49.094;11.900;2023-03-22T06:49:47;95926.81;;;13.27;99.08
11621;BME280;5866;49.094;11.900;2023-03-22T06:52:16;95929.97;;;13.51;94.42
11621;BME280;5866;49.094;11.900;2023-03-22T06:54:43;95930.53;;;13.83;91.15
11621;BME280;5866;49.094;11.900;2023-03-22T06:57:11;95940.06;;;13.71;91.82
11621;BME280;5866;49.094;11.900;2023-03-22T06:59:39;95925.97;;;13.98;88.45
11621;BME280;5866;49.094;11.900;2023-03-22T07:02:09;95928.00;;;13.96;88.02
11621;BME280;5866;49.094;11.900;2023-03-22T07:04:37;95938.41;;;14.12;87.13
11621;BME280;5866;49.094;11.900;2023-03-22T07:07:05;95929.00;;;14.30;85.78
11621;BME280;5866;49.094;11.900;2023-03-22T07:09:34;95930.97;;;14.43;86.47
11621;BME280;5866;49.094;11.900;2023-03-22T07:12:02;95926.34;;;14.86;83.89
11621;BME280;5866;49.094;11.900;2023-03-22T07:14:30;95925.91;;;15.51;80.02
11621;BME280;5866;49.094;11.900;2023-03-22T07:16:58;95922.31;;;15.84;76.33
11621;BME280;5866;49.094;11.900;2023-03-22T07:19:25;95935.97;;;16.48;72.98
11621;BME280;5866;49.094;11.900;2023-03-22T07:21:53;95927.53;;;17.04;68.09
11621;BME280;5866;49.094;11.900;2023-03-22T07:24:20;95918.94;;;17.66;64.33
11621;BME280;5866;49.094;11.900;2023-03-22T07:26:49;95915.88;;;17.93;62.74
11621;BME280;5866;49.094;11.900;2023-03-22T07:29:16;95926.63;;;18.24;60.80
11621;BME280;5866;49.094;11.900;2023-03-22T07:31:44;95923.16;;;18.80;59.16
11621;BME280;5866;49.094;11.900;2023-03-22T07:34:12;95920.13;;;19.37;56.29
11621;BME280;5866;49.094;11.900;2023-03-22T07:36:39;95926.66;;;19.96;54.99
11621;BME280;5866;49.094;11.900;2023-03-22T07:39:07;95925.31;;;20.87;50.70
11621;BME280;5866;49.094;11.900;2023-03-22T07:41:34;95924.44;;;21.91;47.92
11621;BME280;5866;49.094;11.900;2023-03-22T07:44:03;95914.13;;;23.27;45.42
11621;BME280;5866;49.094;11.900;2023-03-22T07:46:43;95924.19;;;24.83;42.12
11621;BME280;5866;49.094;11.900;2023-03-22T07:49:10;95928.13;;;25.39;40.46
11621;BME280;5866;49.094;11.900;2023-03-22T07:51:38;95922.38;;;25.72;39.80
11621;BME280;5866;49.094;11.900;2023-03-22T07:54:05;95924.84;;;25.79;39.21
11621;BME280;5866;49.094;11.900;2023-03-22T07:56:33;95927.91;;;25.92;38.93
11621;BME280;5866;49.094;11.900;2023-03-22T07:59:01;95920.84;;;25.91;38.30
11621;BME280;5866;49.094;11.900;2023-03-22T08:01:30;95922.88;;;25.64;38.73
11621;BME280;5866;49.094;11.900;2023-03-22T08:03:58;95923.56;;;25.91;37.80
11621;BME280;5866;49.094;11.900;2023-03-22T08:06:26;95914.00;;;26.61;37.13
11621;BME280;5866;49.094;11.900;2023-03-22T08:08:54;95919.78;;;27.15;35.84
11621;BME280;5866;49.094;11.900;2023-03-22T08:11:22;95913.22;;;27.56;34.16
11621;BME280;5866;49.094;11.900;2023-03-22T08:13:49;95917.88;;;27.45;35.18
11621;BME280;5866;49.094;11.900;2023-03-22T08:16:17;95918.91;;;27.75;34.55
11621;BME280;5866;49.094;11.900;2023-03-22T08:18:46;95916.25;;;27.34;35.00
11621;BME280;5866;49.094;11.900;2023-03-22T08:21:13;95923.44;;;27.94;33.89
11621;BME280;5866;49.094;11.900;2023-03-22T08:23:41;95924.91;;;27.57;34.19
11621;BME280;5866;49.094;11.900;2023-03-22T08:26:09;95922.78;;;27.38;34.28
11621;BME280;5866;49.094;11.900;2023-03-22T08:28:37;95915.72;;;28.26;32.76
11621;BME280;5866;49.094;11.900;2023-03-22T08:31:09;95915.34;;;28.43;32.20
11621;BME280;5866;49.094;11.900;2023-03-22T08:33:40;95916.94;;;28.00;32.19
11621;BME280;5866;49.094;11.900;2023-03-22T08:36:12;95920.50;;;27.86;32.87
11621;BME280;5866;49.094;11.900;2023-03-22T08:38:40;95914.19;;;28.05;33.28
11621;BME280;5866;49.094;11.900;2023-03-22T08:41:08;95912.22;;;28.21;32.52
11621;BME280;5866;49.094;11.900;2023-03-22T08:43:35;95913.75;;;28.42;32.27
11621;BME280;5866;49.094;11.900;2023-03-22T08:46:03;95915.13;;;28.83;31.58
11621;BME280;5866;49.094;11.900;2023-03-22T08:48:31;95914.03;;;26.66;33.83
11621;BME280;5866;49.094;11.900;2023-03-22T08:51:00;95914.47;;;26.28;35.00
11621;BME280;5866;49.094;11.900;2023-03-22T08:53:29;95919.94;;;26.33;34.58
11621;BME280;5866;49.094;11.900;2023-03-22T08:55:57;95912.34;;;26.50;34.73
11621;BME280;5866;49.094;11.900;2023-03-22T08:58:27;95903.69;;;26.73;34.85
11621;BME280;5866;49.094;11.900;2023-03-22T09:00:55;95905.69;;;28.17;32.35
11621;BME280;5866;49.094;11.900;2023-03-22T09:03:23;95905.72;;;28.07;31.79
11621;BME280;5866;49.094;11.900;2023-03-22T09:05:50;95911.81;;;26.43;32.96
11621;BME280;5866;49.094;11.900;2023-03-22T09:08:18;95907.38;;;26.17;32.37
11621;BME280;5866;49.094;11.900;2023-03-22T09:10:47;95896.06;;;25.78;33.92
11621;BME280;5866;49.094;11.900;2023-03-22T09:13:17;95901.25;;;25.38;34.00
11621;BME280;5866;49.094;11.900;2023-03-22T09:15:46;95895.75;;;25.69;33.12
11621;BME280;5866;49.094;11.900;2023-03-22T09:18:14;95891.09;;;24.60;34.76
11621;BME280;5866;49.094;11.900;2023-03-22T09:20:43;95891.88;;;26.17;33.52
11621;BME280;5866;49.094;11.900;2023-03-22T09:23:11;95897.69;;;25.37;33.15
11621;BME280;5866;49.094;11.900;2023-03-22T09:25:41;95896.94;;;24.73;34.94
11621;BME280;5866;49.094;11.900;2023-03-22T09:28:10;95897.47;;;24.43;35.17
11621;BME280;5866;49.094;11.900;2023-03-22T09:30:38;95893.28;;;24.04;35.66
11621;BME280;5866;49.094;11.900;2023-03-22T09:33:06;95886.44;;;23.58;36.15
11621;BME280;5866;49.094;11.900;2023-03-22T09:35:34;95892.09;;;24.00;35.06
11621;BME280;5866;49.094;11.900;2023-03-22T09:38:01;95886.63;;;24.43;35.02
11621;BME280;5866;49.094;11.900;2023-03-22T09:40:32;95884.94;;;24.11;34.89
11621;BME280;5866;49.094;11.900;2023-03-22T09:43:02;95886.00;;;24.36;34.93
11621;BME280;5866;49.094;11.900;2023-03-22T09:45:34;95867.22;;;23.38;36.75
11621;BME280;5866;49.094;11.900;2023-03-22T09:48:05;95861.53;;;23.02;36.46
11621;BME280;5866;49.094;11.900;2023-03-22T09:50:44;95878.50;;;23.52;36.75
11621;BME280;5866;49.094;11.900;2023-03-22T09:53:13;95871.81;;;23.38;36.03
11621;BME280;5866;49.094;11.900;2023-03-22T09:55:45;95869.59;;;22.63;37.74
11621;BME280;5866;49.094;11.900;2023-03-22T09:58:23;95866.22;;;23.44;36.81
11621;BME280;5866;49.094;11.900;2023-03-22T10:00:57;95865.91;;;23.62;35.61
11621;BME280;5866;49.094;11.900;2023-03-22T10:03:43;95865.47;;;22.77;36.13
11621;BME280;5866;49.094;11.900;2023-03-22T10:06:18;95861.41;;;22.30;37.33
11621;BME280;5866;49.094;11.900;2023-03-22T10:08:52;95863.28;;;22.13;39.61
11621;BME280;5866;49.094;11.900;2023-03-22T10:11:36;95857.84;;;21.96;37.98
11621;BME280;5866;49.094;11.900;2023-03-22T10:14:15;95851.66;;;21.73;39.82
11621;BME280;5866;49.094;11.900;2023-03-22T10:16:51;95860.34;;;21.75;39.68
11621;BME280;5866;49.094;11.900;2023-03-22T10:19:25;95849.31;;;22.49;37.82
11621;BME280;5866;49.094;11.900;2023-03-22T10:21:55;95851.53;;;22.69;37.81
11621;BME280;5866;49.094;11.900;2023-03-22T10:24:27;95851.03;;;23.05;37.12
11621;BME280;5866;49.094;11.900;2023-03-22T10:26:55;95849.56;;;22.64;37.66
11621;BME280;5866;49.094;11.900;2023-03-22T10:29:29;95852.50;;;21.62;40.19
11621;BME280;5866;49.094;11.900;2023-03-22T10:32:11;95858.13;;;21.83;40.06
11621;BME280;5866;49.094;11.900;2023-03-22T10:34:39;95855.63;;;21.42;40.78
11621;BME280;5866;49.094;11.900;2023-03-22T10:37:12;95858.78;;;22.52;39.63
11621;BME280;5866;49.094;11.900;2023-03-22T10:39:41;95857.22;;;22.39;40.25
11621;BME280;5866;49.094;11.900;2023-03-22T10:42:12;95848.91;;;22.90;38.01
11621;BME280;5866;49.094;11.900;2023-03-22T10:44:45;95849.78;;;23.51;38.11
11621;BME280;5866;49.094;11.900;2023-03-22T10:47:17;95850.69;;;24.58;35.95
11621;BME280;5866;49.094;11.900;2023-03-22T10:49:48;95852.78;;;23.98;35.87
11621;BME280;5866;49.094;11.900;2023-03-22T10:54:58;95846.38;;;23.82;36.37
11621;BME280;5866;49.094;11.900;2023-03-22T10:57:29;95839.56;;;23.36;37.13
11621;BME280;5866;49.094;11.900;2023-03-22T10:59:57;95842.59;;;23.02;37.17
11621;BME280;5866;49.094;11.900;2023-03-22T11:02:28;95839.34;;;22.66;38.80
11621;BME280;5866;49.094;11.900;2023-03-22T11:04:59;95835.78;;;22.99;37.86
11621;BME280;5866;49.094;11.900;2023-03-22T11:07:32;95839.16;;;23.66;37.32
11621;BME280;5866;49.094;11.900;2023-03-22T11:10:12;95822.91;;;23.66;36.26
11621;BME280;5866;49.094;11.900;2023-03-22T11:12:49;95821.56;;;23.68;37.25
11621;BME280;5866;49.094;11.900;2023-03-22T11:15:22;95810.97;;;23.24;37.19
11621;BME280;5866;49.094;11.900;2023-03-22T11:17:53;95814.47;;;24.42;36.10
11621;BME280;5866;49.094;11.900;2023-03-22T11:20:21;95810.66;;;24.38;37.49
11621;BME280;5866;49.094;11.900;2023-03-22T11:22:49;95809.06;;;24.42;35.77
11621;BME280;5866;49.094;11.900;2023-03-22T11:25:20;95806.31;;;24.37;35.70
11621;BME280;5866;49.094;11.900;2023-03-22T11:27:50;95817.94;;;23.36;35.49
11621;BME280;5866;49.094;11.900;2023-03-22T11:30:20;95798.03;;;22.71;35.99
11621;BME280;5866;49.094;11.900;2023-03-22T11:32:48;95801.72;;;21.87;38.83
11621;BME280;5866;49.094;11.900;2023-03-22T11:35:21;95794.75;;;22.02;37.43
11621;BME280;5866;49.094;11.900;2023-03-22T11:37:52;95801.88;;;22.25;37.70
11621;BME280;5866;49.094;11.900;2023-03-22T11:40:22;95794.75;;;22.69;36.96
11621;BME280;5866;49.094;11.900;2023-03-22T11:42:52;95786.81;;;22.29;37.22
11621;BME280;5866;49.094;11.900;2023-03-22T11:45:24;95786.47;;;22.09;37.78
11621;BME280;5866;49.094;11.900;2023-03-22T11:47:53;95792.59;;;21.88;39.01
11621;BME280;5866;49.094;11.900;2023-03-22T11:50:28;95785.41;;;22.10;38.04
11621;BME280;5866;49.094;11.900;2023-03-22T11:52:56;95779.44;;;21.52;40.41
11621;BME280;5866;49.094;11.900;2023-03-22T11:55:24;95776.94;;;21.62;39.02
11621;BME280;5866;49.094;11.900;2023-03-22T11:57:54;95782.31;;;22.35;36.96
11621;BME280;5866;49.094;11.900;2023-03-22T12:00:25;95776.56;;;22.81;38.32
11621;BME280;5866;49.094;11.900;2023-03-22T12:02:56;95771.81;;;23.53;36.24
11621;BME280;5866;49.094;11.900;2023-03-22T12:05:30;95768.72;;;23.01;36.87
11621;BME280;5866;49.094;11.900;2023-03-22T12:08:01;95763.13;;;23.08;35.79
11621;BME280;5866;49.094;11.900;2023-03-22T12:10:32;95761.56;;;22.73;37.25
11621;BME280;5866;49.094;11.900;2023-03-22T12:13:06;95748.06;;;22.57;37.21
11621;BME280;5866;49.094;11.900;2023-03-22T12:15:39;95746.78;;;22.59;36.66
11621;BME280;5866;49.094;11.900;2023-03-22T12:18:15;95742.56;;;23.28;35.29
11621;BME280;5866;49.094;11.900;2023-03-22T12:20:52;95751.41;;;23.02;35.71
11621;BME280;5866;49.094;11.900;2023-03-22T12:23:22;95748.47;;;22.65;36.92
11621;BME280;5866;49.094;11.900;2023-03-22T12:25:52;95737.66;;;22.65;36.64
11621;BME280;5866;49.094;11.900;2023-03-22T12:28:25;95731.69;;;23.02;36.29
11621;BME280;5866;49.094;11.900;2023-03-22T12:30:54;95733.72;;;23.59;36.27
11621;BME280;5866;49.094;11.900;2023-03-22T12:33:26;95732.19;;;23.95;34.08
11621;BME280;5866;49.094;11.900;2023-03-22T12:35:57;95726.00;;;23.25;34.93
11621;BME280;5866;49.094;11.900;2023-03-22T12:38:31;95726.28;;;22.47;36.50
11621;BME280;5866;49.094;11.900;2023-03-22T12:41:03;95720.00;;;21.91;37.18
11621;BME280;5866;49.094;11.900;2023-03-22T12:43:41;95720.50;;;22.05;37.36
11621;BME280;5866;49.094;11.900;2023-03-22T12:46:17;95720.34;;;22.28;37.44
11621;BME280;5866;49.094;11.900;2023-03-22T12:48:47;95722.28;;;21.99;36.72
11621;BME280;5866;49.094;11.900;2023-03-22T12:51:18;95715.94;;;21.61;37.54
11621;BME280;5866;49.094;11.900;2023-03-22T12:53:48;95715.75;;;21.22;37.88
11621;BME280;5866;49.094;11.900;2023-03-22T12:56:21;95719.44;;;21.33;38.60
11621;BME280;5866;49.094;11.900;2023-03-22T12:58:52;95717.81;;;21.77;38.24
11621;BME280;5866;49.094;11.900;2023-03-22T13:01:28;95712.25;;;21.95;37.39
11621;BME280;5866;49.094;11.900;2023-03-22T13:03:56;95712.94;;;22.40;36.81
11621;BME280;5866;49.094;11.900;2023-03-22T13:06:31;95706.53;;;22.46;37.24
11621;BME280;5866;49.094;11.900;2023-03-22T13:09:02;95708.19;;;23.29;35.76
11621;BME280;5866;49.094;11.900;2023-03-22T13:11:30;95701.75;;;23.83;34.98
11621;BME280;5866;49.094;11.900;2023-03-22T13:13:58;95703.91;;;23.86;34.71
11621;BME280;5866;49.094;11.900;2023-03-22T13:16:41;95697.94;;;23.31;35.71
11621;BME280;5866;49.094;11.900;2023-03-22T13:19:24;95708.41;;;21.91;35.95